createdAt,value
2018-11-11T00:00:14.078Z,95229.36
2018-11-11T00:02:43.117Z,95230.41
2018-11-11T00:05:12.262Z,95234.53
2018-11-11T00:07:41.310Z,95227.93
2018-11-11T00:10:10.008Z,95227.27
2018-11-11T00:12:39.538Z,95234.07
2018-11-11T00:15:11.795Z,95237.14
2018-11-11T00:17:41.671Z,95233.82
2018-11-11T00:20:11.393Z,95234.86
2018-11-11T00:22:40.494Z,95235.91
2018-11-11T00:25:09.866Z,95239.95
2018-11-11T00:27:39.451Z,95242.05
2018-11-11T00:30:10.396Z,95233.50
2018-11-11T00:32:39.251Z,95234.86
2018-11-11T00:35:08.397Z,95240.01
2018-11-11T00:37:37.223Z,95242.66
2018-11-11T00:40:06.150Z,95244.69
2018-11-11T00:42:35.327Z,95240.45
2018-11-11T00:45:04.219Z,95235.29
2018-11-11T00:47:33.045Z,95236.55
2018-11-11T00:50:02.105Z,95236.23
2018-11-11T00:52:31.082Z,95237.74
2018-11-11T00:55:00.181Z,95237.17
2018-11-11T00:57:29.430Z,95239.19
2018-11-11T00:59:58.060Z,95233.60
2018-11-11T01:02:27.074Z,95230.47
2018-11-11T01:04:55.812Z,95233.94
2018-11-11T01:07:24.582Z,95234.22
2018-11-11T01:09:53.339Z,95239.75
2018-11-11T01:12:22.271Z,95236.78
2018-11-11T01:14:50.992Z,95233.73
2018-11-11T01:17:20.244Z,95232.83
2018-11-11T01:19:49.164Z,95229.75
2018-11-11T01:22:18.276Z,95229.21
2018-11-11T01:24:47.142Z,95231.23
2018-11-11T01:27:15.941Z,95238.79
2018-11-11T01:29:44.717Z,95231.11
2018-11-11T01:32:13.553Z,95234.44
2018-11-11T01:34:42.330Z,95236.78
2018-11-11T01:37:11.040Z,95233.58
2018-11-11T01:39:39.720Z,95232.98
2018-11-11T01:42:08.769Z,95238.98
2018-11-11T01:44:37.694Z,95236.62
2018-11-11T01:47:06.582Z,95243.67
2018-11-11T01:49:35.705Z,95245.59
2018-11-11T01:52:04.813Z,95237.09
2018-11-11T01:54:33.525Z,95248.83
2018-11-11T01:57:02.280Z,95246.30
2018-11-11T01:59:31.124Z,95247.64
2018-11-11T02:01:59.906Z,95245.87
2018-11-11T02:04:28.553Z,95248.41
2018-11-11T02:06:57.321Z,95254.88
2018-11-11T02:09:26.010Z,95259.43
2018-11-11T02:11:54.945Z,95264.36
2018-11-11T02:14:24.036Z,95259.06
2018-11-11T02:16:52.945Z,95256.67
2018-11-11T02:19:21.839Z,95255.53
2018-11-11T02:21:50.718Z,95252.05
2018-11-11T02:24:19.715Z,95257.66
2018-11-11T02:26:48.773Z,95263.20
2018-11-11T02:29:17.476Z,95260.41
2018-11-11T02:31:46.061Z,95265.89
2018-11-11T02:34:15.082Z,95266.21
2018-11-11T02:36:43.815Z,95263.36
2018-11-11T02:39:12.511Z,95258.80
2018-11-11T02:41:41.266Z,95264.50
2018-11-11T02:44:10.242Z,95261.86
2018-11-11T02:46:39.226Z,95262.98
2018-11-11T02:49:08.243Z,95261.69
2018-11-11T02:51:37.099Z,95264.17
2018-11-11T02:54:06.060Z,95260.31
2018-11-11T02:56:34.945Z,95260.64
2018-11-11T02:59:03.801Z,95265.47
2018-11-11T03:01:32.519Z,95267.23
2018-11-11T03:04:01.745Z,95258.31
2018-11-11T03:06:30.622Z,95257.67
2018-11-11T03:08:59.357Z,95261.69
2018-11-11T03:11:28.443Z,95265.39
2018-11-11T03:13:57.142Z,95257.09
2018-11-11T03:16:26.191Z,95258.03
2018-11-11T03:18:55.127Z,95259.50
2018-11-11T03:21:24.270Z,95263.05
2018-11-11T03:23:53.110Z,95270.14
2018-11-11T03:26:22.167Z,95269.70
2018-11-11T03:28:51.232Z,95271.14
2018-11-11T03:31:20.128Z,95272.88
2018-11-11T03:33:48.891Z,95272.44
2018-11-11T03:36:17.605Z,95272.66
2018-11-11T03:38:46.540Z,95268.31
2018-11-11T03:41:15.458Z,95268.88
2018-11-11T03:43:44.566Z,95268.25
2018-11-11T03:46:13.490Z,95274.36
2018-11-11T03:48:42.199Z,95274.13
2018-11-11T03:51:11.018Z,95277.77
2018-11-11T03:53:40.177Z,95281.95
2018-11-11T03:56:09.101Z,95284.53
2018-11-11T03:58:38.374Z,95281.99
2018-11-11T04:01:07.829Z,95284.81
2018-11-11T04:03:36.484Z,95279.38
2018-11-11T04:06:05.074Z,95282.32
2018-11-11T04:08:33.816Z,95290.23
2018-11-11T04:11:02.807Z,95288.55
2018-11-11T04:13:31.903Z,95287.46
2018-11-11T04:16:01.029Z,95285.25
2018-11-11T04:18:30.011Z,95286.22
2018-11-11T04:20:59.059Z,95284.89
2018-11-11T04:23:27.948Z,95291.13
2018-11-11T04:25:56.688Z,95287.51
2018-11-11T04:28:25.678Z,95288.71
2018-11-11T04:30:54.598Z,95291.03
2018-11-11T04:33:23.206Z,95287.17
2018-11-11T04:35:51.967Z,95299.08
2018-11-11T04:38:20.630Z,95303.42
2018-11-11T04:40:49.566Z,95308.95
2018-11-11T04:43:18.877Z,95308.14
2018-11-11T04:45:47.810Z,95306.02
2018-11-11T04:48:16.713Z,95302.64
2018-11-11T04:50:45.765Z,95307.38
2018-11-11T04:53:14.685Z,95310.95
2018-11-11T04:55:43.592Z,95305.96
2018-11-11T04:58:12.234Z,95304.71
2018-11-11T05:00:41.191Z,95301.05
2018-11-11T05:03:09.874Z,95310.73
2018-11-11T05:05:38.534Z,95308.67
2018-11-11T05:08:07.210Z,95313.78
2018-11-11T05:10:36.063Z,95320.80
2018-11-11T05:13:05.161Z,95323.66
2018-11-11T05:15:34.146Z,95323.02
2018-11-11T05:18:02.996Z,95318.58
2018-11-11T05:20:31.930Z,95322.59
2018-11-11T05:23:00.686Z,95330.42
2018-11-11T05:25:29.658Z,95332.64
2018-11-11T05:27:58.684Z,95338.75
2018-11-11T05:30:27.695Z,95332.99
2018-11-11T05:32:56.537Z,95336.56
2018-11-11T05:35:25.357Z,95341.03
2018-11-11T05:37:53.965Z,95333.28
2018-11-11T05:40:23.059Z,95341.16
2018-11-11T05:42:54.670Z,95341.36
2018-11-11T05:45:24.505Z,95333.25
2018-11-11T05:47:53.467Z,95335.87
2018-11-11T05:50:22.380Z,95341.95
2018-11-11T05:52:51.155Z,95345.09
2018-11-11T05:55:20.059Z,95346.17
2018-11-11T05:57:49.128Z,95354.02
2018-11-11T06:00:18.662Z,95354.34
2018-11-11T06:02:47.347Z,95361.95
2018-11-11T06:05:16.562Z,95362.88
2018-11-11T06:07:45.311Z,95363.55
2018-11-11T06:10:15.150Z,95366.48
2018-11-11T06:12:44.189Z,95367.61
2018-11-11T06:15:13.622Z,95364.45
2018-11-11T06:17:42.591Z,95374.37
2018-11-11T06:20:14.269Z,95377.22
2018-11-11T06:22:43.438Z,95381.64
2018-11-11T06:25:12.611Z,95377.03
2018-11-11T06:27:41.315Z,95385.61
2018-11-11T06:30:11.027Z,95388.67
2018-11-11T06:32:39.861Z,95392.63
2018-11-11T06:35:08.577Z,95388.70
2018-11-11T06:37:37.304Z,95394.56
2018-11-11T06:40:07.972Z,95390.53
2018-11-11T06:42:36.873Z,95397.75
2018-11-11T06:45:07.184Z,95398.34
2018-11-11T06:47:36.338Z,95400.67
2018-11-11T06:50:06.024Z,95397.03
2018-11-11T06:52:34.760Z,95398.28
2018-11-11T06:55:03.638Z,95402.79
2018-11-11T06:57:32.735Z,95410.12
2018-11-11T07:00:01.829Z,95409.83
2018-11-11T07:02:36.936Z,95414.25
2018-11-11T07:05:06.906Z,95412.46
2018-11-11T07:07:35.834Z,95406.89
2018-11-11T07:10:05.043Z,95409.65
2018-11-11T07:12:33.707Z,95407.14
2018-11-11T07:15:02.457Z,95409.91
2018-11-11T07:17:31.326Z,95413.27
2018-11-11T07:20:00.288Z,95405.92
2018-11-11T07:22:29.118Z,95410.37
2018-11-11T07:24:58.118Z,95408.27
2018-11-11T07:27:27.064Z,95416.98
2018-11-11T07:29:55.687Z,95414.38
2018-11-11T07:32:24.410Z,95412.23
2018-11-11T07:34:53.275Z,95418.21
2018-11-11T07:37:22.032Z,95420.51
2018-11-11T07:39:50.839Z,95418.11
2018-11-11T07:42:19.755Z,95422.52
2018-11-11T07:44:48.602Z,95415.61
2018-11-11T07:47:17.678Z,95414.77
2018-11-11T07:49:46.581Z,95417.84
2018-11-11T07:52:15.452Z,95419.41
2018-11-11T07:54:44.657Z,95420.89
2018-11-11T07:57:13.798Z,95426.38
2018-11-11T07:59:42.903Z,95432.07
2018-11-11T08:02:11.689Z,95430.42
2018-11-11T08:04:40.358Z,95429.30
2018-11-11T08:07:09.250Z,95428.80
2018-11-11T08:09:38.058Z,95429.11
2018-11-11T08:12:07.584Z,95424.62
2018-11-11T08:14:36.568Z,95432.95
2018-11-11T08:17:05.868Z,95433.30
2018-11-11T08:19:34.915Z,95433.89
2018-11-11T08:22:03.797Z,95432.80
2018-11-11T08:24:32.791Z,95433.48
2018-11-11T08:27:02.134Z,95435.71
2018-11-11T08:29:30.995Z,95435.16
2018-11-11T08:31:59.672Z,95432.34
2018-11-11T08:34:28.431Z,95431.20
2018-11-11T08:36:57.094Z,95427.86
2018-11-11T08:39:25.770Z,95429.58
2018-11-11T08:41:54.646Z,95431.93
2018-11-11T08:44:23.524Z,95428.50
2018-11-11T08:46:52.423Z,95430.92
2018-11-11T08:49:21.353Z,95430.88
2018-11-11T08:51:50.185Z,95430.38
2018-11-11T08:54:19.189Z,95429.87
2018-11-11T08:56:48.133Z,95431.94
2018-11-11T08:59:16.942Z,95431.97
2018-11-11T09:01:45.710Z,95428.73
2018-11-11T09:04:14.386Z,95425.73
2018-11-11T09:06:43.049Z,95426.14
2018-11-11T09:09:12.035Z,95423.34
2018-11-11T09:11:41.340Z,95431.22
2018-11-11T09:14:10.142Z,95423.62
2018-11-11T09:16:39.143Z,95425.46
2018-11-11T09:19:08.088Z,95421.16
2018-11-11T09:21:37.016Z,95418.44
2018-11-11T09:24:06.329Z,95418.16
2018-11-11T09:26:35.233Z,95414.08
2018-11-11T09:29:04.971Z,95415.08
2018-11-11T09:31:33.998Z,95421.31
2018-11-11T09:34:02.743Z,95418.33
2018-11-11T09:36:31.502Z,95415.59
2018-11-11T09:39:01.250Z,95420.45
2018-11-11T09:41:30.494Z,95421.66
2018-11-11T09:43:59.582Z,95422.01
2018-11-11T09:46:28.622Z,95417.80
2018-11-11T09:48:57.467Z,95413.68
2018-11-11T09:51:26.758Z,95406.87
2018-11-11T09:53:55.607Z,95418.22
2018-11-11T09:56:24.542Z,95413.45
2018-11-11T09:58:53.443Z,95411.59
2018-11-11T10:01:22.685Z,95409.70
2018-11-11T10:04:56.997Z,95399.45
2018-11-11T10:07:35.876Z,95400.22
2018-11-11T10:10:12.028Z,95394.09
2018-11-11T10:12:46.946Z,95392.78
2018-11-11T10:15:23.514Z,95399.29
2018-11-11T10:17:57.754Z,95398.78
2018-11-11T10:20:31.723Z,95404.05
2018-11-11T10:23:35.351Z,95399.29
2018-11-11T10:26:07.850Z,95399.06
2018-11-11T10:28:41.242Z,95393.28
2018-11-11T10:31:20.102Z,95388.38
2018-11-11T10:33:59.455Z,95389.14
2018-11-11T10:36:34.256Z,95391.58
2018-11-11T10:39:10.019Z,95382.63
2018-11-11T10:41:44.141Z,95381.27
2018-11-11T10:44:20.050Z,95378.97
2018-11-11T10:46:53.904Z,95374.92
2018-11-11T10:49:27.697Z,95373.02
2018-11-11T10:51:56.639Z,95361.11
2018-11-11T10:54:25.510Z,95362.84
2018-11-11T10:56:54.243Z,95360.33
2018-11-11T10:59:23.060Z,95354.72
2018-11-11T11:02:59.133Z,95363.23
2018-11-11T11:05:27.876Z,95370.65
2018-11-11T11:07:56.846Z,95361.78
2018-11-11T11:10:25.784Z,95363.90
2018-11-11T11:12:55.038Z,95367.33
2018-11-11T11:15:23.993Z,95360.89
2018-11-11T11:17:52.779Z,95361.03
2018-11-11T11:20:21.716Z,95355.56
2018-11-11T11:22:50.888Z,95360.56
2018-11-11T11:25:19.959Z,95300.20
2018-11-11T11:27:49.142Z,95356.05
2018-11-11T11:30:18.266Z,95356.36
2018-11-11T11:32:46.976Z,95356.94
2018-11-11T11:35:15.783Z,95348.79
2018-11-11T11:37:44.742Z,95353.69
2018-11-11T11:40:13.614Z,95347.55
2018-11-11T11:42:42.512Z,95345.86
2018-11-11T11:45:12.318Z,95347.78
2018-11-11T11:47:41.939Z,95339.31
2018-11-11T11:50:12.399Z,95343.69
2018-11-11T11:52:42.136Z,95339.20
2018-11-11T11:55:11.723Z,95340.31
2018-11-11T11:57:40.885Z,95336.08
2018-11-11T12:00:11.939Z,95332.66
2018-11-11T12:02:40.996Z,95330.52
2018-11-11T12:05:10.271Z,95333.82
2018-11-11T12:07:39.250Z,95329.64
2018-11-11T12:10:09.746Z,95335.15
2018-11-11T12:12:39.467Z,95328.44
2018-11-11T12:15:09.523Z,95329.78
2018-11-11T12:17:38.552Z,95329.59
2018-11-11T12:20:07.895Z,95324.80
2018-11-11T12:22:36.617Z,95328.47
2018-11-11T12:25:06.267Z,95332.11
2018-11-11T12:27:35.156Z,95323.31
2018-11-11T12:30:04.346Z,95325.67
2018-11-11T12:32:33.251Z,95332.22
2018-11-11T12:35:01.956Z,95330.64
2018-11-11T12:37:30.627Z,95331.94
2018-11-11T12:39:59.701Z,95329.21
2018-11-11T12:42:28.292Z,95333.19
2018-11-11T12:44:57.276Z,95331.56
2018-11-11T12:47:26.538Z,95331.80
2018-11-11T12:49:55.694Z,95342.50
2018-11-11T12:52:24.469Z,95337.81
2018-11-11T12:54:53.349Z,95340.22
2018-11-11T12:57:22.576Z,95335.36
2018-11-11T12:59:51.451Z,95336.72
2018-11-11T13:02:20.242Z,95332.02
2018-11-11T13:04:49.126Z,95336.73
2018-11-11T13:07:17.753Z,95327.90
2018-11-11T13:09:46.511Z,95328.66
2018-11-11T13:12:15.400Z,95329.52
2018-11-11T13:14:44.150Z,95330.11
2018-11-11T13:17:13.238Z,95327.77
2018-11-11T13:19:42.036Z,95325.34
2018-11-11T13:22:11.036Z,95328.05
2018-11-11T13:24:39.767Z,95333.73
2018-11-11T13:27:09.454Z,95324.33
2018-11-11T13:29:38.493Z,95332.25
2018-11-11T13:32:07.365Z,95332.39
2018-11-11T13:34:36.387Z,95330.44
2018-11-11T13:37:05.142Z,95333.06
2018-11-11T13:39:34.285Z,95337.20
2018-11-11T13:42:03.237Z,95327.17
2018-11-11T13:44:32.160Z,95334.00
2018-11-11T13:47:01.583Z,95336.09
2018-11-11T13:49:30.526Z,95337.14
2018-11-11T13:51:59.342Z,95336.64
2018-11-11T13:54:28.306Z,95333.42
2018-11-11T13:56:57.027Z,95333.93
2018-11-11T13:59:26.096Z,95334.55
2018-11-11T14:01:55.174Z,95338.09
2018-11-11T14:04:23.901Z,95343.96
2018-11-11T14:09:20.515Z,95346.53
2018-11-11T14:11:49.378Z,95349.98
2018-11-11T14:14:18.522Z,95349.59
2018-11-11T14:16:47.503Z,95357.02
2018-11-11T14:19:16.704Z,95355.66
2018-11-11T14:21:45.498Z,95363.47
2018-11-11T14:24:14.231Z,95366.00
2018-11-11T14:26:43.671Z,95359.09
2018-11-11T14:29:12.411Z,95355.04
2018-11-11T14:31:41.382Z,95359.39
2018-11-11T14:34:10.062Z,95355.14
2018-11-11T14:36:38.810Z,95360.30
2018-11-11T14:39:11.062Z,95357.70
2018-11-11T14:41:40.725Z,95366.98
2018-11-11T14:44:09.767Z,95363.28
2018-11-11T14:46:39.200Z,95372.81
2018-11-11T14:49:08.850Z,95369.19
2018-11-11T14:51:37.938Z,95372.14
2018-11-11T14:54:07.085Z,95379.73
2018-11-11T14:56:36.014Z,95383.65
2018-11-11T14:59:05.234Z,95384.82
2018-11-11T15:01:34.158Z,95395.32
2018-11-11T15:04:03.325Z,95393.38
2018-11-11T15:06:32.182Z,95399.27
2018-11-11T15:09:00.927Z,95394.74
2018-11-11T15:11:30.197Z,95395.55
2018-11-11T15:13:59.008Z,95401.86
2018-11-11T15:16:28.018Z,95399.80
2018-11-11T15:18:57.601Z,95398.89
2018-11-11T15:21:26.730Z,95405.31
2018-11-11T15:23:55.621Z,95401.72
2018-11-11T15:26:24.535Z,95404.47
2018-11-11T15:28:53.447Z,95404.23
2018-11-11T15:31:22.344Z,95402.30
2018-11-11T15:33:51.083Z,95401.97
2018-11-11T15:36:20.162Z,95400.36
2018-11-11T15:38:48.962Z,95403.56
2018-11-11T15:41:18.068Z,95406.41
2018-11-11T15:43:46.992Z,95419.05
2018-11-11T15:46:15.850Z,95417.23
2018-11-11T15:48:44.745Z,95423.89
2018-11-11T15:51:13.524Z,95423.75
2018-11-11T15:53:42.697Z,95426.83
2018-11-11T15:56:11.505Z,95431.66
2018-11-11T15:58:40.453Z,95430.70
2018-11-11T16:01:09.285Z,95430.25
2018-11-11T16:03:38.277Z,95439.80
2018-11-11T16:06:07.531Z,95437.16
2018-11-11T16:08:36.275Z,95441.45
2018-11-11T16:11:05.814Z,95440.89
2018-11-11T16:13:35.085Z,95440.93
2018-11-11T16:16:03.787Z,95442.64
2018-11-11T16:18:33.624Z,95448.19
2018-11-11T16:21:02.988Z,95450.52
2018-11-11T16:23:32.141Z,95455.80
2018-11-11T16:26:01.173Z,95454.09
2018-11-11T16:28:29.906Z,95453.86
2018-11-11T16:30:58.694Z,95446.95
2018-11-11T16:33:27.575Z,95448.45
2018-11-11T16:35:56.357Z,95443.75
2018-11-11T16:38:25.189Z,95440.84
2018-11-11T16:40:54.067Z,95448.92
2018-11-11T16:43:23.078Z,95442.64
2018-11-11T16:45:51.775Z,95451.42
2018-11-11T16:48:20.864Z,95454.33
2018-11-11T16:50:50.649Z,95449.66
2018-11-11T16:53:19.740Z,95443.98
2018-11-11T16:55:48.986Z,95450.16
2018-11-11T16:58:17.838Z,95460.20
2018-11-11T17:00:46.614Z,95457.33
2018-11-11T17:03:15.295Z,95458.86
2018-11-11T17:05:44.202Z,95460.80
2018-11-11T17:08:12.959Z,95460.43
2018-11-11T17:10:41.893Z,95464.14
2018-11-11T17:13:12.025Z,95457.73
2018-11-11T17:15:40.953Z,95465.94
2018-11-11T17:18:09.837Z,95472.05
2018-11-11T17:20:38.907Z,95478.83
2018-11-11T17:23:08.507Z,95476.34
2018-11-11T17:25:37.439Z,95479.94
2018-11-11T17:28:06.836Z,95472.78
2018-11-11T17:30:35.614Z,95488.39
2018-11-11T17:33:04.708Z,95491.58
2018-11-11T17:35:33.723Z,95493.66
2018-11-11T17:38:02.675Z,95499.06
2018-11-11T17:40:32.025Z,95496.78
2018-11-11T17:43:01.723Z,95496.95
2018-11-11T17:45:30.818Z,95505.13
2018-11-11T17:47:59.962Z,95510.48
2018-11-11T17:50:30.158Z,95512.48
2018-11-11T17:53:00.163Z,95519.18
2018-11-11T17:55:29.829Z,95516.58
2018-11-11T17:57:58.971Z,95524.48
2018-11-11T18:00:28.920Z,95524.88
2018-11-11T18:02:58.294Z,95526.10
2018-11-11T18:05:28.375Z,95530.59
2018-11-11T18:07:57.180Z,95533.46
2018-11-11T18:10:26.715Z,95535.66
2018-11-11T18:12:55.607Z,95540.05
2018-11-11T18:15:27.097Z,95541.65
2018-11-11T18:17:55.749Z,95546.14
2018-11-11T18:20:26.921Z,95554.23
2018-11-11T18:22:56.334Z,95546.58
2018-11-11T18:25:25.164Z,95544.73
2018-11-11T18:27:53.898Z,95542.24
2018-11-11T18:30:25.347Z,95549.44
2018-11-11T18:32:54.094Z,95552.22
2018-11-11T18:35:29.662Z,95549.50
2018-11-11T18:37:58.902Z,95558.54
2018-11-11T18:40:28.919Z,95555.45
2018-11-11T18:42:57.854Z,95561.38
2018-11-11T18:45:28.070Z,95563.91
2018-11-11T18:47:57.284Z,95565.16
2018-11-11T18:50:27.531Z,95565.92
2018-11-11T18:52:56.357Z,95567.05
2018-11-11T18:55:25.382Z,95574.61
2018-11-11T18:57:54.074Z,95575.09
2018-11-11T19:00:24.402Z,95579.70
2018-11-11T19:02:54.009Z,95575.95
2018-11-11T19:05:23.418Z,95590.56
2018-11-11T19:07:52.364Z,95591.16
2018-11-11T19:10:29.173Z,95601.59
2018-11-11T19:12:59.709Z,95593.81
2018-11-11T19:15:28.759Z,95603.00
2018-11-11T19:17:57.694Z,95598.27
2018-11-11T19:20:27.117Z,95602.81
2018-11-11T19:22:55.958Z,95601.48
2018-11-11T19:25:26.257Z,95601.31
2018-11-11T19:27:55.546Z,95606.16
2018-11-11T19:30:25.652Z,95613.33
2018-11-11T19:32:54.645Z,95609.39
2018-11-11T19:35:23.430Z,95618.22
2018-11-11T19:37:53.404Z,95609.88
2018-11-11T19:40:23.466Z,95610.03
2018-11-11T19:42:53.132Z,95609.98
2018-11-11T19:45:23.355Z,95608.88
2018-11-11T19:47:52.210Z,95605.62
2018-11-11T19:50:22.294Z,95607.54
2018-11-11T19:52:52.526Z,95606.11
2018-11-11T19:55:21.892Z,95610.63
2018-11-11T19:57:51.518Z,95613.22
2018-11-11T20:00:23.340Z,95610.00
2018-11-11T20:02:52.741Z,95613.31
2018-11-11T20:05:22.192Z,95620.52
2018-11-11T20:07:52.162Z,95616.89
2018-11-11T20:10:21.630Z,95614.91
2018-11-11T20:12:50.825Z,95618.33
2018-11-11T20:15:23.045Z,95618.30
2018-11-11T20:17:52.027Z,95625.25
2018-11-11T20:20:23.291Z,95628.44
2018-11-11T20:22:52.333Z,95624.68
2018-11-11T20:25:21.739Z,95627.36
2018-11-11T20:27:50.594Z,95627.25
2018-11-11T20:30:25.055Z,95628.97
2018-11-11T20:32:53.879Z,95633.25
2018-11-11T20:35:24.243Z,95625.27
2018-11-11T20:37:53.133Z,95626.50
2018-11-11T20:40:23.023Z,95552.91
2018-11-11T20:42:52.239Z,95631.38
2018-11-11T20:45:22.498Z,95628.50
2018-11-11T20:47:52.166Z,95629.60
2018-11-11T20:50:22.336Z,95633.16
2018-11-11T20:52:52.867Z,95636.14
2018-11-11T20:55:22.229Z,95635.16
2018-11-11T20:57:51.655Z,95636.89
2018-11-11T21:00:21.819Z,95631.14
2018-11-11T21:02:50.759Z,95640.14
2018-11-11T21:05:21.374Z,95637.36
2018-11-11T21:07:50.447Z,95638.73
2018-11-11T21:10:20.674Z,95637.22
2018-11-11T21:12:49.355Z,95644.96
2018-11-11T21:15:19.747Z,95648.33
2018-11-11T21:17:49.308Z,95652.09
2018-11-11T21:20:19.920Z,95656.72
2018-11-11T21:22:48.787Z,95649.46
2018-11-11T21:25:17.569Z,95661.39
2018-11-11T21:27:47.105Z,95668.12
2018-11-11T21:30:17.455Z,95671.66
2018-11-11T21:32:46.367Z,95670.91
2018-11-11T21:35:15.447Z,95678.83
2018-11-11T21:37:44.531Z,95681.34
2018-11-11T21:40:15.362Z,95695.41
2018-11-11T21:42:45.537Z,95693.91
2018-11-11T21:45:15.970Z,95700.80
2018-11-11T21:47:45.129Z,95688.73
2018-11-11T21:50:17.511Z,95691.32
2018-11-11T21:53:49.883Z,95689.97
2018-11-11T21:56:19.331Z,95691.14
2018-11-11T21:58:48.043Z,95698.88
2018-11-11T22:01:16.698Z,95692.98
2018-11-11T22:03:45.544Z,95694.22
2018-11-11T22:06:14.526Z,95693.25
2018-11-11T22:08:43.567Z,95692.98
2018-11-11T22:11:12.847Z,95694.27
2018-11-11T22:13:42.003Z,95702.08
2018-11-11T22:16:10.919Z,95701.06
2018-11-11T22:18:40.739Z,95699.92
2018-11-11T22:21:09.528Z,95698.15
2018-11-11T22:23:38.353Z,95708.91
2018-11-11T22:26:07.462Z,95703.92
2018-11-11T22:28:36.117Z,95707.27
2018-11-11T22:31:04.694Z,95712.00
2018-11-11T22:33:33.450Z,95709.73
2018-11-11T22:36:02.161Z,95713.81
2018-11-11T22:38:31.045Z,95718.00
2018-11-11T22:41:00.260Z,95715.01
2018-11-11T22:43:29.140Z,95704.07
2018-11-11T22:45:58.086Z,95709.97
2018-11-11T22:48:27.446Z,95708.23
2018-11-11T22:50:56.428Z,95709.64
2018-11-11T22:53:25.125Z,95706.98
2018-11-11T22:55:54.521Z,95711.05
2018-11-11T22:58:23.327Z,95705.88
2018-11-11T23:00:57.401Z,95709.87
2018-11-11T23:03:26.387Z,95715.52
2018-11-11T23:05:55.382Z,95708.88
2018-11-11T23:08:24.443Z,95714.69
2018-11-11T23:10:53.919Z,95711.34
2018-11-11T23:13:22.994Z,95713.95
2018-11-11T23:15:52.282Z,95716.69
2018-11-11T23:18:21.137Z,95717.98
2018-11-11T23:20:50.092Z,95723.59
2018-11-11T23:23:19.378Z,95723.47
2018-11-11T23:25:48.484Z,95729.73
2018-11-11T23:28:17.289Z,95721.52
2018-11-11T23:30:46.254Z,95728.53
2018-11-11T23:33:15.207Z,95725.83
2018-11-11T23:35:44.202Z,95721.27
2018-11-11T23:38:13.145Z,95713.41
2018-11-11T23:40:41.778Z,95716.19
2018-11-11T23:43:10.509Z,95712.47
2018-11-11T23:45:39.717Z,95712.03
2018-11-11T23:48:08.597Z,95710.23
2018-11-11T23:50:37.510Z,95715.27
2018-11-11T23:53:06.714Z,95710.69
2018-11-11T23:55:35.696Z,95710.37
2018-11-11T23:58:04.470Z,95716.55
